sensor_id;sensor_type;location;lat;lon;timestamp;P1;durP1;ratioP1;P2;durP2;ratioP2
57341;SDS011;43175;51.002;18.316;2023-07-20T00:01:11;14.30;;;6.10;;
57341;SDS011;43175;51.002;18.316;2023-07-20T00:03:37;15.40;;;6.00;;
57341;SDS011;43175;51.002;18.316;2023-07-20T00:06:02;14.00;;;6.00;;
57341;SDS011;43175;51.002;18.316;2023-07-20T00:08:30;13.10;;;6.20;;
57341;SDS011;43175;51.002;18.316;2023-07-20T00:10:55;15.30;;;6.30;;
57341;SDS011;43175;51.002;18.316;2023-07-20T00:13:21;13.30;;;5.70;;
57341;SDS011;43175;51.002;18.316;2023-07-20T00:15:46;15.50;;;6.40;;
57341;SDS011;43175;51.002;18.316;2023-07-20T00:18:12;13.70;;;5.90;;
57341;SDS011;43175;51.002;18.316;2023-07-20T00:20:38;13.70;;;6.10;;
57341;SDS011;43175;51.002;18.316;2023-07-20T00:23:03;13.00;;;5.70;;
57341;SDS011;43175;51.002;18.316;2023-07-20T00:25:29;12.20;;;5.00;;
57341;SDS011;43175;51.002;18.316;2023-07-20T00:27:54;13.90;;;5.20;;
57341;SDS011;43175;51.002;18.316;2023-07-20T00:30:20;12.20;;;5.20;;
57341;SDS011;43175;51.002;18.316;2023-07-20T00:32:45;18.10;;;5.10;;
57341;SDS011;43175;51.002;18.316;2023-07-20T00:35:11;11.90;;;4.80;;
57341;SDS011;43175;51.002;18.316;2023-07-20T00:37:36;15.80;;;5.20;;
57341;SDS011;43175;51.002;18.316;2023-07-20T00:40:02;14.20;;;5.30;;
57341;SDS011;43175;51.002;18.316;2023-07-20T00:42:30;13.60;;;4.40;;
57341;SDS011;43175;51.002;18.316;2023-07-20T00:44:56;12.90;;;4.60;;
57341;SDS011;43175;51.002;18.316;2023-07-20T00:47:21;13.40;;;4.50;;
57341;SDS011;43175;51.002;18.316;2023-07-20T00:49:50;16.10;;;4.80;;
57341;SDS011;43175;51.002;18.316;2023-07-20T00:52:16;11.20;;;4.50;;
57341;SDS011;43175;51.002;18.316;2023-07-20T00:54:42;13.20;;;4.50;;
57341;SDS011;43175;51.002;18.316;2023-07-20T00:57:08;11.20;;;4.60;;
57341;SDS011;43175;51.002;18.316;2023-07-20T00:59:34;14.90;;;4.90;;
57341;SDS011;43175;51.002;18.316;2023-07-20T01:02:02;10.80;;;4.40;;
57341;SDS011;43175;51.002;18.316;2023-07-20T01:04:27;12.90;;;4.40;;
57341;SDS011;43175;51.002;18.316;2023-07-20T01:09:26;13.00;;;4.90;;
57341;SDS011;43175;51.002;18.316;2023-07-20T01:14:18;14.40;;;5.20;;
57341;SDS011;43175;51.002;18.316;2023-07-20T01:16:43;13.20;;;5.00;;
57341;SDS011;43175;51.002;18.316;2023-07-20T01:19:09;10.90;;;4.90;;
57341;SDS011;43175;51.002;18.316;2023-07-20T01:21:40;12.60;;;4.90;;
57341;SDS011;43175;51.002;18.316;2023-07-20T01:29:33;12.90;;;5.50;;
57341;SDS011;43175;51.002;18.316;2023-07-20T01:32:03;13.20;;;5.50;;
57341;SDS011;43175;51.002;18.316;2023-07-20T01:34:29;15.70;;;5.80;;
57341;SDS011;43175;51.002;18.316;2023-07-20T01:36:55;12.00;;;5.60;;
57341;SDS011;43175;51.002;18.316;2023-07-20T01:39:21;10.50;;;4.80;;
57341;SDS011;43175;51.002;18.316;2023-07-20T01:41:47;11.10;;;4.90;;
57341;SDS011;43175;51.002;18.316;2023-07-20T01:44:13;11.70;;;4.60;;
57341;SDS011;43175;51.002;18.316;2023-07-20T01:46:38;11.30;;;4.90;;
57341;SDS011;43175;51.002;18.316;2023-07-20T01:49:04;11.90;;;5.00;;
57341;SDS011;43175;51.002;18.316;2023-07-20T01:51:29;11.20;;;4.80;;
57341;SDS011;43175;51.002;18.316;2023-07-20T01:53:54;10.90;;;4.80;;
57341;SDS011;43175;51.002;18.316;2023-07-20T01:56:20;13.40;;;4.90;;
57341;SDS011;43175;51.002;18.316;2023-07-20T01:58:45;14.00;;;5.40;;
57341;SDS011;43175;51.002;18.316;2023-07-20T02:01:11;12.20;;;5.70;;
57341;SDS011;43175;51.002;18.316;2023-07-20T02:03:36;13.40;;;6.20;;
57341;SDS011;43175;51.002;18.316;2023-07-20T02:06:02;14.60;;;6.00;;
57341;SDS011;43175;51.002;18.316;2023-07-20T02:08:28;13.20;;;6.30;;
57341;SDS011;43175;51.002;18.316;2023-07-20T02:10:53;14.50;;;6.20;;
57341;SDS011;43175;51.002;18.316;2023-07-20T02:13:18;13.40;;;6.60;;
57341;SDS011;43175;51.002;18.316;2023-07-20T02:15:44;12.60;;;6.30;;
57341;SDS011;43175;51.002;18.316;2023-07-20T02:18:10;14.00;;;6.30;;
57341;SDS011;43175;51.002;18.316;2023-07-20T02:20:35;12.90;;;6.30;;
57341;SDS011;43175;51.002;18.316;2023-07-20T02:23:01;12.60;;;6.50;;
57341;SDS011;43175;51.002;18.316;2023-07-20T02:25:26;16.30;;;6.50;;
57341;SDS011;43175;51.002;18.316;2023-07-20T02:27:52;12.90;;;6.60;;
57341;SDS011;43175;51.002;18.316;2023-07-20T02:30:18;12.50;;;6.30;;
57341;SDS011;43175;51.002;18.316;2023-07-20T02:32:44;13.30;;;6.40;;
57341;SDS011;43175;51.002;18.316;2023-07-20T02:35:11;13.40;;;6.50;;
57341;SDS011;43175;51.002;18.316;2023-07-20T02:37:37;13.60;;;6.20;;
57341;SDS011;43175;51.002;18.316;2023-07-20T02:40:02;13.10;;;6.40;;
57341;SDS011;43175;51.002;18.316;2023-07-20T02:42:29;14.20;;;7.00;;
57341;SDS011;43175;51.002;18.316;2023-07-20T02:44:55;13.60;;;6.20;;
57341;SDS011;43175;51.002;18.316;2023-07-20T02:47:21;14.00;;;6.70;;
57341;SDS011;43175;51.002;18.316;2023-07-20T02:49:48;13.70;;;7.00;;
57341;SDS011;43175;51.002;18.316;2023-07-20T02:52:13;12.40;;;6.60;;
57341;SDS011;43175;51.002;18.316;2023-07-20T02:54:39;13.10;;;6.50;;
57341;SDS011;43175;51.002;18.316;2023-07-20T02:57:04;16.70;;;6.80;;
57341;SDS011;43175;51.002;18.316;2023-07-20T02:59:30;13.80;;;6.20;;
57341;SDS011;43175;51.002;18.316;2023-07-20T03:01:55;14.50;;;6.40;;
57341;SDS011;43175;51.002;18.316;2023-07-20T03:04:21;21.80;;;6.00;;
57341;SDS011;43175;51.002;18.316;2023-07-20T03:06:46;13.70;;;6.20;;
57341;SDS011;43175;51.002;18.316;2023-07-20T03:09:12;12.20;;;5.90;;
57341;SDS011;43175;51.002;18.316;2023-07-20T03:11:37;14.50;;;5.80;;
57341;SDS011;43175;51.002;18.316;2023-07-20T03:14:03;13.80;;;6.00;;
57341;SDS011;43175;51.002;18.316;2023-07-20T03:16:28;12.20;;;5.60;;
57341;SDS011;43175;51.002;18.316;2023-07-20T03:18:54;16.30;;;6.10;;
57341;SDS011;43175;51.002;18.316;2023-07-20T03:21:19;14.10;;;5.90;;
57341;SDS011;43175;51.002;18.316;2023-07-20T03:23:45;15.80;;;5.90;;
57341;SDS011;43175;51.002;18.316;2023-07-20T03:26:11;16.80;;;5.60;;
57341;SDS011;43175;51.002;18.316;2023-07-20T03:28:37;13.80;;;5.70;;
57341;SDS011;43175;51.002;18.316;2023-07-20T03:31:03;17.60;;;5.90;;
57341;SDS011;43175;51.002;18.316;2023-07-20T03:33:31;15.10;;;6.30;;
57341;SDS011;43175;51.002;18.316;2023-07-20T03:35:57;14.00;;;6.50;;
57341;SDS011;43175;51.002;18.316;2023-07-20T03:38:23;17.10;;;6.00;;
57341;SDS011;43175;51.002;18.316;2023-07-20T03:40:52;17.80;;;6.10;;
57341;SDS011;43175;51.002;18.316;2023-07-20T03:43:18;16.30;;;6.40;;
57341;SDS011;43175;51.002;18.316;2023-07-20T03:45:44;13.20;;;6.10;;
57341;SDS011;43175;51.002;18.316;2023-07-20T03:48:11;15.00;;;6.20;;
57341;SDS011;43175;51.002;18.316;2023-07-20T03:50:36;15.70;;;6.50;;
57341;SDS011;43175;51.002;18.316;2023-07-20T03:53:02;18.50;;;6.20;;
57341;SDS011;43175;51.002;18.316;2023-07-20T03:55:27;16.10;;;6.80;;
57341;SDS011;43175;51.002;18.316;2023-07-20T03:57:53;14.80;;;6.30;;
57341;SDS011;43175;51.002;18.316;2023-07-20T04:00:18;15.60;;;6.90;;
57341;SDS011;43175;51.002;18.316;2023-07-20T04:02:44;18.50;;;6.80;;
57341;SDS011;43175;51.002;18.316;2023-07-20T04:05:09;17.10;;;7.30;;
57341;SDS011;43175;51.002;18.316;2023-07-20T04:07:35;14.40;;;7.10;;
57341;SDS011;43175;51.002;18.316;2023-07-20T04:10:00;15.00;;;7.20;;
57341;SDS011;43175;51.002;18.316;2023-07-20T04:12:26;18.40;;;6.70;;
57341;SDS011;43175;51.002;18.316;2023-07-20T04:14:51;16.80;;;7.10;;
57341;SDS011;43175;51.002;18.316;2023-07-20T04:17:17;18.30;;;6.90;;
57341;SDS011;43175;51.002;18.316;2023-07-20T04:19:43;18.80;;;7.20;;
57341;SDS011;43175;51.002;18.316;2023-07-20T04:22:08;18.80;;;7.30;;
57341;SDS011;43175;51.002;18.316;2023-07-20T04:24:33;17.00;;;7.90;;
57341;SDS011;43175;51.002;18.316;2023-07-20T04:26:59;15.90;;;7.30;;
57341;SDS011;43175;51.002;18.316;2023-07-20T04:29:24;15.80;;;8.50;;
57341;SDS011;43175;51.002;18.316;2023-07-20T04:31:50;16.20;;;8.50;;
57341;SDS011;43175;51.002;18.316;2023-07-20T04:34:16;14.90;;;7.70;;
57341;SDS011;43175;51.002;18.316;2023-07-20T04:36:41;15.00;;;7.80;;
57341;SDS011;43175;51.002;18.316;2023-07-20T04:39:07;13.20;;;6.80;;
57341;SDS011;43175;51.002;18.316;2023-07-20T04:41:33;13.70;;;6.20;;
57341;SDS011;43175;51.002;18.316;2023-07-20T04:43:59;13.10;;;6.40;;
57341;SDS011;43175;51.002;18.316;2023-07-20T04:46:24;11.60;;;5.80;;
57341;SDS011;43175;51.002;18.316;2023-07-20T04:48:50;12.60;;;5.60;;
57341;SDS011;43175;51.002;18.316;2023-07-20T04:51:15;12.20;;;5.40;;
57341;SDS011;43175;51.002;18.316;2023-07-20T04:53:46;11.40;;;5.50;;
57341;SDS011;43175;51.002;18.316;2023-07-20T04:56:11;11.30;;;5.60;;
57341;SDS011;43175;51.002;18.316;2023-07-20T04:58:37;11.10;;;5.10;;
57341;SDS011;43175;51.002;18.316;2023-07-20T05:01:02;11.70;;;5.20;;
57341;SDS011;43175;51.002;18.316;2023-07-20T05:03:28;11.50;;;5.20;;
57341;SDS011;43175;51.002;18.316;2023-07-20T05:05:54;11.50;;;5.50;;
57341;SDS011;43175;51.002;18.316;2023-07-20T05:08:20;12.30;;;5.60;;
57341;SDS011;43175;51.002;18.316;2023-07-20T05:10:47;10.80;;;5.00;;
57341;SDS011;43175;51.002;18.316;2023-07-20T05:13:13;12.00;;;4.70;;
57341;SDS011;43175;51.002;18.316;2023-07-20T05:15:38;10.20;;;4.80;;
57341;SDS011;43175;51.002;18.316;2023-07-20T05:18:04;12.00;;;5.40;;
57341;SDS011;43175;51.002;18.316;2023-07-20T05:20:29;12.30;;;5.40;;
57341;SDS011;43175;51.002;18.316;2023-07-20T05:22:57;12.10;;;5.90;;
57341;SDS011;43175;51.002;18.316;2023-07-20T05:25:22;12.70;;;6.40;;
57341;SDS011;43175;51.002;18.316;2023-07-20T05:27:48;12.90;;;6.80;;
57341;SDS011;43175;51.002;18.316;2023-07-20T05:30:13;13.00;;;7.00;;
57341;SDS011;43175;51.002;18.316;2023-07-20T05:32:38;15.30;;;7.40;;
57341;SDS011;43175;51.002;18.316;2023-07-20T05:35:04;14.40;;;7.60;;
57341;SDS011;43175;51.002;18.316;2023-07-20T05:37:30;15.60;;;9.10;;
57341;SDS011;43175;51.002;18.316;2023-07-20T05:39:55;13.70;;;8.50;;
57341;SDS011;43175;51.002;18.316;2023-07-20T05:42:21;14.70;;;9.20;;
57341;SDS011;43175;51.002;18.316;2023-07-20T05:44:46;14.10;;;8.10;;
57341;SDS011;43175;51.002;18.316;2023-07-20T05:47:13;15.30;;;7.60;;
57341;SDS011;43175;51.002;18.316;2023-07-20T05:49:39;14.80;;;7.20;;
57341;SDS011;43175;51.002;18.316;2023-07-20T05:54:48;13.70;;;6.90;;
57341;SDS011;43175;51.002;18.316;2023-07-20T05:57:14;14.70;;;7.50;;
57341;SDS011;43175;51.002;18.316;2023-07-20T05:59:40;13.70;;;7.60;;
57341;SDS011;43175;51.002;18.316;2023-07-20T06:02:09;14.50;;;7.80;;
57341;SDS011;43175;51.002;18.316;2023-07-20T06:04:35;13.90;;;7.80;;
57341;SDS011;43175;51.002;18.316;2023-07-20T06:07:00;12.30;;;7.20;;
57341;SDS011;43175;51.002;18.316;2023-07-20T06:09:26;13.40;;;7.50;;
57341;SDS011;43175;51.002;18.316;2023-07-20T06:11:52;13.20;;;7.60;;
57341;SDS011;43175;51.002;18.316;2023-07-20T06:14:18;13.90;;;7.20;;
57341;SDS011;43175;51.002;18.316;2023-07-20T06:16:43;12.60;;;7.70;;
57341;SDS011;43175;51.002;18.316;2023-07-20T06:19:09;14.60;;;9.50;;
57341;SDS011;43175;51.002;18.316;2023-07-20T06:21:37;15.20;;;9.20;;
57341;SDS011;43175;51.002;18.316;2023-07-20T06:24:03;18.60;;;10.20;;
57341;SDS011;43175;51.002;18.316;2023-07-20T06:26:28;15.70;;;10.10;;
57341;SDS011;43175;51.002;18.316;2023-07-20T06:28:55;17.70;;;10.20;;
57341;SDS011;43175;51.002;18.316;2023-07-20T06:31:21;14.50;;;9.80;;
57341;SDS011;43175;51.002;18.316;2023-07-20T06:33:46;14.30;;;9.60;;
57341;SDS011;43175;51.002;18.316;2023-07-20T06:36:12;14.40;;;10.00;;
57341;SDS011;43175;51.002;18.316;2023-07-20T06:38:38;14.40;;;9.40;;
57341;SDS011;43175;51.002;18.316;2023-07-20T06:41:03;15.30;;;9.20;;
57341;SDS011;43175;51.002;18.316;2023-07-20T06:43:29;16.70;;;9.50;;
57341;SDS011;43175;51.002;18.316;2023-07-20T06:45:54;16.30;;;8.80;;
57341;SDS011;43175;51.002;18.316;2023-07-20T06:48:21;15.40;;;9.30;;
57341;SDS011;43175;51.002;18.316;2023-07-20T06:50:46;16.50;;;8.70;;
57341;SDS011;43175;51.002;18.316;2023-07-20T06:53:12;14.80;;;8.80;;
57341;SDS011;43175;51.002;18.316;2023-07-20T06:55:38;14.80;;;9.20;;
57341;SDS011;43175;51.002;18.316;2023-07-20T06:58:03;13.40;;;8.60;;
57341;SDS011;43175;51.002;18.316;2023-07-20T07:00:29;16.40;;;8.50;;
57341;SDS011;43175;51.002;18.316;2023-07-20T07:02:54;14.10;;;8.30;;
57341;SDS011;43175;51.002;18.316;2023-07-20T07:05:20;15.10;;;8.20;;
57341;SDS011;43175;51.002;18.316;2023-07-20T07:07:45;14.40;;;7.90;;
57341;SDS011;43175;51.002;18.316;2023-07-20T07:10:10;13.80;;;6.60;;
57341;SDS011;43175;51.002;18.316;2023-07-20T07:12:36;14.60;;;7.10;;
57341;SDS011;43175;51.002;18.316;2023-07-20T07:15:04;11.90;;;6.10;;
57341;SDS011;43175;51.002;18.316;2023-07-20T07:17:31;11.10;;;5.70;;
57341;SDS011;43175;51.002;18.316;2023-07-20T07:19:58;10.80;;;4.80;;
57341;SDS011;43175;51.002;18.316;2023-07-20T07:22:23;12.70;;;5.00;;
57341;SDS011;43175;51.002;18.316;2023-07-20T07:24:48;12.70;;;5.20;;
57341;SDS011;43175;51.002;18.316;2023-07-20T07:27:14;13.00;;;4.50;;
57341;SDS011;43175;51.002;18.316;2023-07-20T07:29:43;10.50;;;4.40;;
57341;SDS011;43175;51.002;18.316;2023-07-20T07:32:11;10.30;;;4.60;;
57341;SDS011;43175;51.002;18.316;2023-07-20T07:34:37;11.30;;;4.50;;
57341;SDS011;43175;51.002;18.316;2023-07-20T07:37:03;10.10;;;4.20;;
57341;SDS011;43175;51.002;18.316;2023-07-20T07:39:28;10.50;;;4.40;;
57341;SDS011;43175;51.002;18.316;2023-07-20T07:41:55;9.80;;;4.20;;
57341;SDS011;43175;51.002;18.316;2023-07-20T07:44:20;11.00;;;4.00;;
57341;SDS011;43175;51.002;18.316;2023-07-20T07:46:46;11.50;;;4.10;;
57341;SDS011;43175;51.002;18.316;2023-07-20T07:49:12;10.00;;;3.80;;
57341;SDS011;43175;51.002;18.316;2023-07-20T07:51:37;11.00;;;4.30;;
57341;SDS011;43175;51.002;18.316;2023-07-20T07:54:03;13.10;;;3.90;;
57341;SDS011;43175;51.002;18.316;2023-07-20T07:56:29;10.40;;;4.00;;
57341;SDS011;43175;51.002;18.316;2023-07-20T07:58:54;9.00;;;3.90;;
57341;SDS011;43175;51.002;18.316;2023-07-20T08:01:19;10.60;;;4.60;;
57341;SDS011;43175;51.002;18.316;2023-07-20T08:03:45;9.70;;;3.80;;
57341;SDS011;43175;51.002;18.316;2023-07-20T08:06:13;9.50;;;4.10;;
57341;SDS011;43175;51.002;18.316;2023-07-20T08:08:38;9.60;;;3.60;;
57341;SDS011;43175;51.002;18.316;2023-07-20T08:11:04;10.10;;;3.60;;
57341;SDS011;43175;51.002;18.316;2023-07-20T08:13:29;9.60;;;3.40;;
57341;SDS011;43175;51.002;18.316;2023-07-20T08:15:55;9.20;;;3.50;;
57341;SDS011;43175;51.002;18.316;2023-07-20T08:18:21;9.30;;;3.60;;
57341;SDS011;43175;51.002;18.316;2023-07-20T08:20:46;9.50;;;3.70;;
57341;SDS011;43175;51.002;18.316;2023-07-20T08:23:12;9.50;;;3.60;;
57341;SDS011;43175;51.002;18.316;2023-07-20T08:25:39;9.90;;;3.60;;
57341;SDS011;43175;51.002;18.316;2023-07-20T08:28:11;8.90;;;3.00;;
57341;SDS011;43175;51.002;18.316;2023-07-20T08:30:40;11.00;;;3.40;;
57341;SDS011;43175;51.002;18.316;2023-07-20T08:33:05;8.30;;;3.30;;
57341;SDS011;43175;51.002;18.316;2023-07-20T08:35:31;10.30;;;3.50;;
57341;SDS011;43175;51.002;18.316;2023-07-20T08:37:56;8.30;;;3.30;;
57341;SDS011;43175;51.002;18.316;2023-07-20T08:40:21;8.70;;;3.20;;
57341;SDS011;43175;51.002;18.316;2023-07-20T08:42:47;9.40;;;3.40;;
57341;SDS011;43175;51.002;18.316;2023-07-20T08:45:13;11.10;;;3.40;;
57341;SDS011;43175;51.002;18.316;2023-07-20T08:47:39;8.10;;;3.30;;
57341;SDS011;43175;51.002;18.316;2023-07-20T08:50:06;8.80;;;3.20;;
57341;SDS011;43175;51.002;18.316;2023-07-20T08:52:34;8.30;;;3.00;;
57341;SDS011;43175;51.002;18.316;2023-07-20T08:54:59;8.50;;;3.10;;
57341;SDS011;43175;51.002;18.316;2023-07-20T08:57:28;9.60;;;3.20;;
57341;SDS011;43175;51.002;18.316;2023-07-20T08:59:54;10.60;;;3.40;;
57341;SDS011;43175;51.002;18.316;2023-07-20T09:02:20;8.50;;;3.20;;
57341;SDS011;43175;51.002;18.316;2023-07-20T09:04:49;8.40;;;2.90;;
57341;SDS011;43175;51.002;18.316;2023-07-20T09:07:15;11.30;;;2.90;;
57341;SDS011;43175;51.002;18.316;2023-07-20T09:09:40;8.80;;;3.10;;
57341;SDS011;43175;51.002;18.316;2023-07-20T09:12:13;8.10;;;2.90;;
57341;SDS011;43175;51.002;18.316;2023-07-20T09:14:39;8.90;;;3.00;;
57341;SDS011;43175;51.002;18.316;2023-07-20T09:17:04;8.20;;;3.20;;
57341;SDS011;43175;51.002;18.316;2023-07-20T09:19:30;10.20;;;3.20;;
57341;SDS011;43175;51.002;18.316;2023-07-20T09:21:55;8.60;;;3.10;;
57341;SDS011;43175;51.002;18.316;2023-07-20T09:24:21;9.00;;;2.90;;
57341;SDS011;43175;51.002;18.316;2023-07-20T09:26:47;10.00;;;3.30;;
57341;SDS011;43175;51.002;18.316;2023-07-20T09:29:19;13.00;;;3.30;;
57341;SDS011;43175;51.002;18.316;2023-07-20T09:32:00;8.80;;;3.10;;
57341;SDS011;43175;51.002;18.316;2023-07-20T09:34:27;8.70;;;3.40;;
57341;SDS011;43175;51.002;18.316;2023-07-20T09:36:53;8.40;;;3.50;;
57341;SDS011;43175;51.002;18.316;2023-07-20T09:39:19;9.10;;;3.60;;
57341;SDS011;43175;51.002;18.316;2023-07-20T09:41:45;9.30;;;3.60;;
57341;SDS011;43175;51.002;18.316;2023-07-20T09:44:10;8.60;;;3.50;;
57341;SDS011;43175;51.002;18.316;2023-07-20T09:46:48;9.10;;;3.70;;
57341;SDS011;43175;51.002;18.316;2023-07-20T09:49:14;8.80;;;3.60;;
57341;SDS011;43175;51.002;18.316;2023-07-20T09:51:40;9.20;;;3.60;;
57341;SDS011;43175;51.002;18.316;2023-07-20T09:54:06;10.20;;;3.40;;
57341;SDS011;43175;51.002;18.316;2023-07-20T09:56:32;9.20;;;3.70;;
57341;SDS011;43175;51.002;18.316;2023-07-20T09:58:58;8.90;;;3.50;;
57341;SDS011;43175;51.002;18.316;2023-07-20T10:01:23;11.40;;;3.70;;
57341;SDS011;43175;51.002;18.316;2023-07-20T10:03:51;12.00;;;3.80;;
57341;SDS011;43175;51.002;18.316;2023-07-20T10:06:20;9.80;;;3.30;;
57341;SDS011;43175;51.002;18.316;2023-07-20T10:08:49;9.50;;;3.30;;
57341;SDS011;43175;51.002;18.316;2023-07-20T10:11:17;8.20;;;2.90;;
57341;SDS011;43175;51.002;18.316;2023-07-20T10:13:43;7.90;;;3.00;;
57341;SDS011;43175;51.002;18.316;2023-07-20T10:16:18;9.40;;;3.20;;
57341;SDS011;43175;51.002;18.316;2023-07-20T10:18:49;8.40;;;3.00;;
57341;SDS011;43175;51.002;18.316;2023-07-20T10:21:16;8.10;;;2.80;;
57341;SDS011;43175;51.002;18.316;2023-07-20T10:23:42;9.40;;;2.90;;
57341;SDS011;43175;51.002;18.316;2023-07-20T10:26:07;8.90;;;3.10;;
57341;SDS011;43175;51.002;18.316;2023-07-20T10:28:33;8.00;;;3.00;;
57341;SDS011;43175;51.002;18.316;2023-07-20T10:30:59;9.40;;;3.20;;
57341;SDS011;43175;51.002;18.316;2023-07-20T10:33:24;10.90;;;3.90;;
57341;SDS011;43175;51.002;18.316;2023-07-20T10:35:51;10.20;;;3.10;;
57341;SDS011;43175;51.002;18.316;2023-07-20T10:38:16;9.60;;;3.40;;
57341;SDS011;43175;51.002;18.316;2023-07-20T10:40:42;8.50;;;3.20;;
57341;SDS011;43175;51.002;18.316;2023-07-20T10:43:08;9.00;;;3.10;;
57341;SDS011;43175;51.002;18.316;2023-07-20T10:46:07;9.00;;;3.10;;
57341;SDS011;43175;51.002;18.316;2023-07-20T10:48:25;10.10;;;3.30;;
57341;SDS011;43175;51.002;18.316;2023-07-20T10:53:35;9.50;;;3.70;;
57341;SDS011;43175;51.002;18.316;2023-07-20T10:56:08;9.90;;;3.70;;
57341;SDS011;43175;51.002;18.316;2023-07-20T10:58:34;10.70;;;4.00;;
57341;SDS011;43175;51.002;18.316;2023-07-20T11:01:00;10.40;;;3.90;;
57341;SDS011;43175;51.002;18.316;2023-07-20T11:03:26;12.40;;;4.10;;
57341;SDS011;43175;51.002;18.316;2023-07-20T11:05:52;10.40;;;4.00;;
57341;SDS011;43175;51.002;18.316;2023-07-20T11:08:37;11.70;;;4.30;;
57341;SDS011;43175;51.002;18.316;2023-07-20T11:13:58;10.90;;;4.40;;
57341;SDS011;43175;51.002;18.316;2023-07-20T11:18:59;11.20;;;4.00;;
57341;SDS011;43175;51.002;18.316;2023-07-20T11:21:24;8.80;;;3.90;;
57341;SDS011;43175;51.002;18.316;2023-07-20T11:23:51;10.90;;;4.20;;
57341;SDS011;43175;51.002;18.316;2023-07-20T11:26:17;10.00;;;4.10;;
57341;SDS011;43175;51.002;18.316;2023-07-20T11:28:51;9.80;;;4.10;;
57341;SDS011;43175;51.002;18.316;2023-07-20T11:31:18;9.80;;;4.10;;
57341;SDS011;43175;51.002;18.316;2023-07-20T11:33:43;9.40;;;3.80;;
57341;SDS011;43175;51.002;18.316;2023-07-20T11:36:09;9.90;;;3.70;;
57341;SDS011;43175;51.002;18.316;2023-07-20T11:38:35;8.90;;;3.60;;
57341;SDS011;43175;51.002;18.316;2023-07-20T11:41:00;9.80;;;3.20;;
57341;SDS011;43175;51.002;18.316;2023-07-20T11:43:27;7.90;;;2.70;;
57341;SDS011;43175;51.002;18.316;2023-07-20T11:45:53;9.20;;;2.60;;
57341;SDS011;43175;51.002;18.316;2023-07-20T11:48:18;8.40;;;2.50;;
57341;SDS011;43175;51.002;18.316;2023-07-20T11:50:45;7.70;;;2.80;;
57341;SDS011;43175;51.002;18.316;2023-07-20T11:53:11;9.50;;;2.70;;
57341;SDS011;43175;51.002;18.316;2023-07-20T11:55:37;6.90;;;2.50;;
57341;SDS011;43175;51.002;18.316;2023-07-20T11:58:04;8.80;;;2.60;;
57341;SDS011;43175;51.002;18.316;2023-07-20T12:00:30;8.10;;;2.60;;
57341;SDS011;43175;51.002;18.316;2023-07-20T12:02:55;6.80;;;2.50;;
57341;SDS011;43175;51.002;18.316;2023-07-20T12:05:24;5.90;;;2.10;;
57341;SDS011;43175;51.002;18.316;2023-07-20T12:07:49;6.00;;;2.20;;
57341;SDS011;43175;51.002;18.316;2023-07-20T12:10:22;8.20;;;2.40;;
57341;SDS011;43175;51.002;18.316;2023-07-20T12:12:48;6.50;;;2.20;;
57341;SDS011;43175;51.002;18.316;2023-07-20T12:17:48;7.10;;;2.20;;
57341;SDS011;43175;51.002;18.316;2023-07-20T12:20:24;5.50;;;1.90;;
57341;SDS011;43175;51.002;18.316;2023-07-20T12:22:49;6.00;;;2.00;;
57341;SDS011;43175;51.002;18.316;2023-07-20T12:25:15;6.70;;;2.20;;
57341;SDS011;43175;51.002;18.316;2023-07-20T12:27:40;6.90;;;2.10;;
57341;SDS011;43175;51.002;18.316;2023-07-20T12:30:07;7.30;;;2.40;;
57341;SDS011;43175;51.002;18.316;2023-07-20T12:32:32;6.50;;;2.10;;
57341;SDS011;43175;51.002;18.316;2023-07-20T12:34:58;7.40;;;2.40;;
57341;SDS011;43175;51.002;18.316;2023-07-20T12:37:25;6.20;;;2.30;;
57341;SDS011;43175;51.002;18.316;2023-07-20T12:39:51;6.60;;;2.10;;
57341;SDS011;43175;51.002;18.316;2023-07-20T12:42:16;6.00;;;2.10;;
57341;SDS011;43175;51.002;18.316;2023-07-20T12:44:42;6.90;;;2.10;;
57341;SDS011;43175;51.002;18.316;2023-07-20T12:47:07;7.30;;;2.40;;
57341;SDS011;43175;51.002;18.316;2023-07-20T12:49:33;10.60;;;2.10;;
57341;SDS011;43175;51.002;18.316;2023-07-20T12:51:59;5.90;;;2.20;;
57341;SDS011;43175;51.002;18.316;2023-07-20T12:54:24;5.40;;;2.10;;
57341;SDS011;43175;51.002;18.316;2023-07-20T12:56:49;6.30;;;2.30;;
57341;SDS011;43175;51.002;18.316;2023-07-20T12:59:15;9.10;;;2.30;;
57341;SDS011;43175;51.002;18.316;2023-07-20T13:01:40;5.30;;;2.10;;
57341;SDS011;43175;51.002;18.316;2023-07-20T13:04:07;7.20;;;2.20;;
57341;SDS011;43175;51.002;18.316;2023-07-20T13:06:35;6.00;;;2.20;;
57341;SDS011;43175;51.002;18.316;2023-07-20T13:09:01;6.80;;;2.40;;
57341;SDS011;43175;51.002;18.316;2023-07-20T13:11:27;7.50;;;2.10;;
57341;SDS011;43175;51.002;18.316;2023-07-20T13:13:52;8.90;;;2.40;;
57341;SDS011;43175;51.002;18.316;2023-07-20T13:16:18;9.30;;;2.70;;
57341;SDS011;43175;51.002;18.316;2023-07-20T13:18:43;14.70;;;3.10;;
57341;SDS011;43175;51.002;18.316;2023-07-20T13:21:09;12.00;;;3.50;;
57341;SDS011;43175;51.002;18.316;2023-07-20T13:23:36;12.00;;;3.90;;
57341;SDS011;43175;51.002;18.316;2023-07-20T13:26:02;11.90;;;4.00;;
57341;SDS011;43175;51.002;18.316;2023-07-20T13:28:28;12.60;;;4.20;;
57341;SDS011;43175;51.002;18.316;2023-07-20T13:30:54;11.10;;;3.80;;
57341;SDS011;43175;51.002;18.316;2023-07-20T13:33:20;12.10;;;4.20;;
57341;SDS011;43175;51.002;18.316;2023-07-20T13:35:45;9.80;;;4.00;;
57341;SDS011;43175;51.002;18.316;2023-07-20T13:38:10;10.20;;;3.70;;
57341;SDS011;43175;51.002;18.316;2023-07-20T13:40:36;8.60;;;3.70;;
57341;SDS011;43175;51.002;18.316;2023-07-20T13:43:02;10.80;;;4.00;;
57341;SDS011;43175;51.002;18.316;2023-07-20T13:45:27;8.70;;;3.40;;
57341;SDS011;43175;51.002;18.316;2023-07-20T13:47:53;8.50;;;3.30;;
57341;SDS011;43175;51.002;18.316;2023-07-20T13:50:18;10.70;;;3.60;;
57341;SDS011;43175;51.002;18.316;2023-07-20T13:52:44;10.40;;;3.40;;
57341;SDS011;43175;51.002;18.316;2023-07-20T13:55:09;8.40;;;3.50;;
57341;SDS011;43175;51.002;18.316;2023-07-20T13:57:35;7.90;;;3.20;;
57341;SDS011;43175;51.002;18.316;2023-07-20T14:00:00;8.40;;;3.40;;
57341;SDS011;43175;51.002;18.316;2023-07-20T14:02:27;9.40;;;3.80;;
57341;SDS011;43175;51.002;18.316;2023-07-20T14:04:52;11.60;;;3.60;;
57341;SDS011;43175;51.002;18.316;2023-07-20T14:07:21;8.40;;;3.40;;
57341;SDS011;43175;51.002;18.316;2023-07-20T14:09:46;8.10;;;3.00;;
57341;SDS011;43175;51.002;18.316;2023-07-20T14:12:12;8.20;;;3.10;;
57341;SDS011;43175;51.002;18.316;2023-07-20T14:14:39;8.00;;;2.80;;
57341;SDS011;43175;51.002;18.316;2023-07-20T14:17:06;7.50;;;2.80;;
57341;SDS011;43175;51.002;18.316;2023-07-20T14:19:32;8.10;;;2.80;;
57341;SDS011;43175;51.002;18.316;2023-07-20T14:21:57;7.60;;;2.90;;
57341;SDS011;43175;51.002;18.316;2023-07-20T14:24:25;7.50;;;2.70;;
57341;SDS011;43175;51.002;18.316;2023-07-20T14:26:50;8.60;;;2.80;;
57341;SDS011;43175;51.002;18.316;2023-07-20T14:29:16;8.40;;;2.90;;
57341;SDS011;43175;51.002;18.316;2023-07-20T14:31:43;8.90;;;3.00;;
57341;SDS011;43175;51.002;18.316;2023-07-20T14:34:09;7.60;;;2.70;;
57341;SDS011;43175;51.002;18.316;2023-07-20T14:36:35;7.10;;;2.80;;
57341;SDS011;43175;51.002;18.316;2023-07-20T14:39:00;7.70;;;3.00;;
57341;SDS011;43175;51.002;18.316;2023-07-20T14:41:25;7.40;;;2.70;;
57341;SDS011;43175;51.002;18.316;2023-07-20T14:43:51;8.40;;;2.80;;